Igiugig Airport

About
Name: Igiugig Airport
Identifier:  IGG/PAIG
Serves:  Igiugig, Alaska
Owner:  State of Alaska DOT&PF - Central Region
Public/Private:  Public
Local Time:  19. Aug 17:49 AKDT
Description: Igiugig Airport is a state-owned, public-use airport serving Igiugig, in the Lake and Peninsula Borough of the U.S. state of Alaska. Scheduled airline service to King Salmon Airport is provided by Peninsula Airways.
Source: Wikipedia
Location
Runways
Identifier Length (m/ft) Surface
5/23 3,000/3,000 Gravel
Flights per Day
1 flights
Distance: 83km (52mi)
Punctuality
71% (0 flights per day delayed)
Delay Average: 802 minutes
Current Weather
 14 C (Humidity: 54%)
  6kt (11km/h / 6mph) from 250°
  16km (10 mi.)
 
 METAR PAIG 200056Z AUTO 25006KT 10SM CLR 14/05 A2990 RMK AO2 SLP136 T01390050 $

Current Flights

Departures
Number Departure To Airline
Arrivals
Number Arrival From Airline

Current Delays

Departures
N/A
Arrivals
N/A

Destinations

Top Destinations
Airport Flights
per week
Seats
per week
  Anchorage (ANC) 0 - 0 0

Airlines & Planes

Top Airlines
Airline Flights
per Day
Seats
per Day
Alaska Central Express 0 -
Top Plane Types
Model Flights Seats
Beech 1900D 0.0/day - 0